Sage Lab — WDH3681 — position and weather

sailwx.info

Track history (hours):
 
Tides and Currents Weather Stations Pressure Air Temp Water Temp Dewpoint Dewpoint Depression Visibility Wind Speed Wind Dir Waves Ship Positions

Sage Lab

Owner: Laborde Marine Management, Morgan City, LA. More information available from US FCC via Universal Licensing System and Coast Guard Vessel Documentation Center.

Last reported at 2017-Sep-14 15:00 UTC. Time now 2017-Sep-24 10:44 UTC.
Position N 29°48' W 093°20'.
Warning: this ship's position is 9 days out of date.

Length 46 m; draft 11.5 m.

Type: Other ship. MMSI: 366951840.

Date/timePositionNaut miles runAvg speedWind from/ knotsBaromVisibWave heightAir tempDewpointWater temp
2017-Sep-14 15:00N 29°48' W 093°20'1 3.0
2017-Sep-14 14:30N 29°49' W 093°21'  
2017-Sep-09 19:17N 29°47' W 093°21'1 4.9
2017-Sep-09 19:00N 29°49' W 093°21'0 0.1
2017-Sep-09 18:30N 29°49' W 093°21'0 0.0
2017-Sep-09 18:00N 29°49' W 093°21'0 0.0
2017-Sep-09 17:30N 29°49' W 093°21'0 0.0
2017-Sep-09 17:00N 29°49' W 093°21'0 0.0
2017-Sep-09 16:30N 29°49' W 093°21'1 2.2
2017-Sep-09 15:53N 29°47' W 093°21'1 3.0
2017-Sep-09 15:30N 29°46' W 093°21'0 0.0
2017-Sep-09 15:00N 29°46' W 093°21'0 0.0
2017-Sep-09 14:29N 29°46' W 093°21'0 0.0
2017-Sep-09 13:58N 29°46' W 093°21'3 2.5
2017-Sep-09 12:46N 29°49' W 093°20'0 0.0
2017-Sep-09 11:33N 29°49' W 093°20'0 0.0
2017-Sep-09 10:55N 29°49' W 093°20'0 0.0
2017-Sep-09 10:25N 29°49' W 093°20'0 0.0
2017-Sep-09 09:58N 29°49' W 093°20'0 0.0
2017-Sep-09 09:30N 29°49' W 093°20'0 0.0
2017-Sep-09 08:58N 29°49' W 093°20'0 0.0
2017-Sep-09 08:30N 29°49' W 093°20'0 0.0
2017-Sep-09 07:59N 29°49' W 093°20'0 0.0
2017-Sep-09 07:30N 29°49' W 093°20'0 0.0
2017-Sep-09 07:00N 29°49' W 093°20'0 0.0
2017-Sep-09 06:30N 29°49' W 093°20'0 0.0
2017-Sep-09 04:29N 29°49' W 093°20'0 0.0
2017-Sep-09 03:50N 29°49' W 093°20'0 0.0
2017-Sep-09 03:10N 29°49' W 093°20'0 0.0
2017-Sep-09 03:00N 29°49' W 093°20'0 0.0
2017-Sep-09 02:22N 29°49' W 093°20'1 1.7
2017-Sep-09 02:00N 29°49' W 093°21'1 0.0
2017-Sep-07 01:41N 29°48' W 093°21'2 8.2
2017-Sep-07 01:29N 29°49' W 093°20'0 0.1
2017-Sep-07 01:00N 29°49' W 093°20'0 0.0
2017-Sep-07 00:30N 29°49' W 093°20'0 0.0
2017-Sep-06 23:59N 29°49' W 093°20'0 0.1
2017-Sep-06 23:30N 29°49' W 093°20'0 0.0
2017-Sep-06 22:58N 29°49' W 093°20'0 0.0
2017-Sep-06 22:29N 29°49' W 093°20'0 0.0
2017-Sep-06 21:59N 29°49' W 093°20'0 0.0
2017-Sep-06 21:29N 29°49' W 093°20'0 0.0
2017-Sep-06 21:00N 29°49' W 093°20'0 0.0
2017-Sep-06 20:29N 29°49' W 093°20'0 0.0
2017-Sep-06 19:52N 29°49' W 093°20'0 0.0
2017-Sep-06 19:30N 29°49' W 093°20'0 0.0
2017-Sep-06 18:55N 29°49' W 093°20'0 0.0
2017-Sep-06 18:30N 29°49' W 093°20'0 0.0
2017-Sep-06 17:54N 29°49' W 093°20'0 0.0
2017-Sep-06 17:30N 29°49' W 093°20'0 0.0
2017-Sep-06 16:14N 29°49' W 093°20'0 0.0
2017-Sep-06 15:52N 29°49' W 093°20'1 2.1
2017-Sep-06 15:30N 29°49' W 093°21'2 4.6
2017-Sep-06 14:59N 29°46' W 093°21'0 0.0
2017-Sep-06 14:28N 29°46' W 093°21'0 0.0
2017-Sep-06 13:58N 29°46' W 093°21'0 0.0
2017-Sep-06 13:30N 29°46' W 093°21'2 3.8
2017-Sep-06 12:58N 29°48' W 093°21'1 1.7
2017-Sep-06 12:21N 29°49' W 093°20'0 0.0
2017-Sep-06 12:00N 29°49' W 093°20'0 0.0
2017-Sep-06 11:30N 29°49' W 093°20'0 0.0
2017-Sep-06 10:10N 29°49' W 093°20'0 0.0
2017-Sep-06 09:53N 29°49' W 093°20'0 0.0
2017-Sep-06 08:57N 29°49' W 093°20'0 0.0
2017-Sep-06 08:28N 29°49' W 093°20'0 0.0
2017-Sep-06 07:55N 29°49' W 093°20'0 0.2
2017-Sep-06 07:16N 29°49' W 093°20'0 0.3
2017-Sep-06 07:00N 29°49' W 093°20'0 0.0
2017-Sep-06 06:29N 29°49' W 093°20'0 0.0
2017-Sep-06 06:00N 29°49' W 093°20'1 2.8
2017-Sep-06 05:28N 29°48' W 093°21'  
Track history (hours):
 
Tides and Currents Weather Stations Pressure Air Temp Water Temp Dewpoint Dewpoint Depression Visibility Wind Speed Wind Dir Waves Ship Positions

Sage Lab

Owner: Laborde Marine Management, Morgan City, LA. More information available from US FCC via Universal Licensing System and Coast Guard Vessel Documentation Center.

Last reported at 2017-Sep-14 15:00 UTC. Time now 2017-Sep-24 10:44 UTC.
Position N 29°48' W 093°20'.
Warning: this ship's position is 9 days out of date.

Length 46 m; draft 11.5 m.

Type: Other ship. MMSI: 366951840.

Date/timePositionNaut miles runAvg speedWind from/ knotsBaromVisibWave heightAir tempDewpointWater temp
2017-Sep-14 15:00N 29°48' W 093°20'1 3.0
2017-Sep-14 14:30N 29°49' W 093°21'  
2017-Sep-09 19:17N 29°47' W 093°21'1 4.9
2017-Sep-09 19:00N 29°49' W 093°21'0 0.1
2017-Sep-09 18:30N 29°49' W 093°21'0 0.0
2017-Sep-09 18:00N 29°49' W 093°21'0 0.0
2017-Sep-09 17:30N 29°49' W 093°21'0 0.0
2017-Sep-09 17:00N 29°49' W 093°21'0 0.0
2017-Sep-09 16:30N 29°49' W 093°21'1 2.2
2017-Sep-09 15:53N 29°47' W 093°21'1 3.0
2017-Sep-09 15:30N 29°46' W 093°21'0 0.0
2017-Sep-09 15:00N 29°46' W 093°21'0 0.0
2017-Sep-09 14:29N 29°46' W 093°21'0 0.0
2017-Sep-09 13:58N 29°46' W 093°21'3 2.5
2017-Sep-09 12:46N 29°49' W 093°20'0 0.0
2017-Sep-09 11:33N 29°49' W 093°20'0 0.0
2017-Sep-09 10:55N 29°49' W 093°20'0 0.0
2017-Sep-09 10:25N 29°49' W 093°20'0 0.0
2017-Sep-09 09:58N 29°49' W 093°20'0 0.0
2017-Sep-09 09:30N 29°49' W 093°20'0 0.0
2017-Sep-09 08:58N 29°49' W 093°20'0 0.0
2017-Sep-09 08:30N 29°49' W 093°20'0 0.0
2017-Sep-09 07:59N 29°49' W 093°20'0 0.0
2017-Sep-09 07:30N 29°49' W 093°20'0 0.0
2017-Sep-09 07:00N 29°49' W 093°20'0 0.0
2017-Sep-09 06:30N 29°49' W 093°20'0 0.0
2017-Sep-09 04:29N 29°49' W 093°20'0 0.0
2017-Sep-09 03:50N 29°49' W 093°20'0 0.0
2017-Sep-09 03:10N 29°49' W 093°20'0 0.0
2017-Sep-09 03:00N 29°49' W 093°20'0 0.0
2017-Sep-09 02:22N 29°49' W 093°20'1 1.7
2017-Sep-09 02:00N 29°49' W 093°21'1 0.0
2017-Sep-07 01:41N 29°48' W 093°21'2 8.2
2017-Sep-07 01:29N 29°49' W 093°20'0 0.1
2017-Sep-07 01:00N 29°49' W 093°20'0 0.0
2017-Sep-07 00:30N 29°49' W 093°20'0 0.0
2017-Sep-06 23:59N 29°49' W 093°20'0 0.1
2017-Sep-06 23:30N 29°49' W 093°20'0 0.0
2017-Sep-06 22:58N 29°49' W 093°20'0 0.0
2017-Sep-06 22:29N 29°49' W 093°20'0 0.0
2017-Sep-06 21:59N 29°49' W 093°20'0 0.0
2017-Sep-06 21:29N 29°49' W 093°20'0 0.0
2017-Sep-06 21:00N 29°49' W 093°20'0 0.0
2017-Sep-06 20:29N 29°49' W 093°20'0 0.0
2017-Sep-06 19:52N 29°49' W 093°20'0 0.0
2017-Sep-06 19:30N 29°49' W 093°20'0 0.0
2017-Sep-06 18:55N 29°49' W 093°20'0 0.0
2017-Sep-06 18:30N 29°49' W 093°20'0 0.0
2017-Sep-06 17:54N 29°49' W 093°20'0 0.0
2017-Sep-06 17:30N 29°49' W 093°20'0 0.0
2017-Sep-06 16:14N 29°49' W 093°20'0 0.0
2017-Sep-06 15:52N 29°49' W 093°20'1 2.1
2017-Sep-06 15:30N 29°49' W 093°21'2 4.6
2017-Sep-06 14:59N 29°46' W 093°21'0 0.0
2017-Sep-06 14:28N 29°46' W 093°21'0 0.0
2017-Sep-06 13:58N 29°46' W 093°21'0 0.0
2017-Sep-06 13:30N 29°46' W 093°21'2 3.8
2017-Sep-06 12:58N 29°48' W 093°21'1 1.7
2017-Sep-06 12:21N 29°49' W 093°20'0 0.0
2017-Sep-06 12:00N 29°49' W 093°20'0 0.0
2017-Sep-06 11:30N 29°49' W 093°20'0 0.0
2017-Sep-06 10:10N 29°49' W 093°20'0 0.0
2017-Sep-06 09:53N 29°49' W 093°20'0 0.0
2017-Sep-06 08:57N 29°49' W 093°20'0 0.0
2017-Sep-06 08:28N 29°49' W 093°20'0 0.0
2017-Sep-06 07:55N 29°49' W 093°20'0 0.2
2017-Sep-06 07:16N 29°49' W 093°20'0 0.3
2017-Sep-06 07:00N 29°49' W 093°20'0 0.0
2017-Sep-06 06:29N 29°49' W 093°20'0 0.0
2017-Sep-06 06:00N 29°49' W 093°20'1 2.8
2017-Sep-06 05:28N 29°48' W 093°21'  

Dump ship's entire track history